createdAt,value
2024-03-11T00:01:29.790Z,2.64
2024-03-11T00:03:56.905Z,2.64
2024-03-11T00:06:24.136Z,2.62
2024-03-11T00:08:51.437Z,2.47
2024-03-11T00:11:18.681Z,2.45
2024-03-11T00:13:45.735Z,2.46
2024-03-11T00:16:12.791Z,2.44
2024-03-11T00:18:40.183Z,2.50
2024-03-11T00:21:07.447Z,2.38
2024-03-11T00:23:34.856Z,2.33
2024-03-11T00:26:02.068Z,2.45
2024-03-11T00:28:29.408Z,2.36
2024-03-11T00:30:56.410Z,2.30
2024-03-11T00:33:23.511Z,2.44
2024-03-11T00:45:39.729Z,2.79
2024-03-11T00:48:06.830Z,2.71
2024-03-11T00:50:33.980Z,2.63
2024-03-11T00:53:01.137Z,2.42
2024-03-11T00:55:28.202Z,2.59
2024-03-11T00:57:55.322Z,2.50
2024-03-11T01:00:22.322Z,2.44
2024-03-11T01:02:49.342Z,2.60
2024-03-11T01:05:16.470Z,2.39
2024-03-11T01:07:45.971Z,2.36
2024-03-11T01:10:13.946Z,2.32
2024-03-11T01:12:41.045Z,2.21
2024-03-11T01:15:08.064Z,2.24
2024-03-11T01:17:35.064Z,2.11
2024-03-11T01:20:02.245Z,2.06
2024-03-11T01:22:29.368Z,2.00
2024-03-11T01:24:56.316Z,2.32
2024-03-11T01:27:23.364Z,2.20
2024-03-11T01:29:50.457Z,2.10
2024-03-11T01:32:17.486Z,2.32
2024-03-11T01:34:44.526Z,2.13
2024-03-11T01:37:11.482Z,2.15
2024-03-11T01:39:38.513Z,2.17
2024-03-11T01:42:05.915Z,2.05
2024-03-11T01:44:33.208Z,2.06
2024-03-11T01:47:00.390Z,1.89
2024-03-11T01:49:27.420Z,2.15
2024-03-11T01:51:54.522Z,2.18
2024-03-11T01:54:21.544Z,2.08
2024-03-11T01:56:48.593Z,2.20
2024-03-11T01:59:15.682Z,2.22
2024-03-11T02:01:42.761Z,2.27
2024-03-11T02:04:09.841Z,2.25
2024-03-11T02:06:36.855Z,2.27
2024-03-11T02:09:03.916Z,2.51
2024-03-11T02:11:31.180Z,2.28
2024-03-11T02:13:58.423Z,2.29
2024-03-11T02:16:25.476Z,2.45
2024-03-11T02:18:52.560Z,2.08
2024-03-11T02:21:19.623Z,2.09
2024-03-11T02:23:46.693Z,2.14
2024-03-11T02:26:13.746Z,2.04
2024-03-11T02:28:40.855Z,2.20
2024-03-11T02:31:07.867Z,2.18
2024-03-11T02:33:34.952Z,2.27
2024-03-11T02:36:02.405Z,2.33
2024-03-11T02:38:29.495Z,2.15
2024-03-11T02:40:56.489Z,2.19
2024-03-11T02:43:23.555Z,2.19
2024-03-11T02:45:50.398Z,2.29
2024-03-11T02:48:17.297Z,2.40
2024-03-11T02:50:44.336Z,2.58
2024-03-11T02:53:11.238Z,2.62
2024-03-11T02:55:38.011Z,2.70
2024-03-11T02:58:04.891Z,2.88
2024-03-11T03:00:31.706Z,2.86
2024-03-11T03:02:58.730Z,2.83
2024-03-11T03:05:26.113Z,2.58
2024-03-11T03:07:53.392Z,2.53
2024-03-11T03:10:20.232Z,2.36
2024-03-11T03:12:46.987Z,2.77
2024-03-11T03:15:13.830Z,2.63
2024-03-11T03:17:40.872Z,2.64
2024-03-11T03:20:08.085Z,2.49
2024-03-11T03:25:01.596Z,2.61
2024-03-11T03:27:28.390Z,2.52
2024-03-11T03:29:55.202Z,2.41
2024-03-11T03:32:22.025Z,2.31
2024-03-11T03:34:48.920Z,2.51
2024-03-11T03:37:16.942Z,2.38
2024-03-11T03:39:44.203Z,2.59
2024-03-11T03:42:10.978Z,2.47
2024-03-11T03:44:38.094Z,2.60
2024-03-11T03:47:05.229Z,2.51
2024-03-11T03:49:32.273Z,2.54
2024-03-11T03:51:59.297Z,2.67
2024-03-11T03:54:26.864Z,2.52
2024-03-11T03:56:53.975Z,2.54
2024-03-11T03:59:21.385Z,2.75
2024-03-11T04:01:48.495Z,2.59
2024-03-11T04:04:15.521Z,2.75
2024-03-11T04:06:42.542Z,2.68
2024-03-11T04:09:09.556Z,2.72
2024-03-11T04:11:37.087Z,2.85
2024-03-11T04:14:04.249Z,2.56
2024-03-11T04:16:31.324Z,2.69
2024-03-11T04:18:58.347Z,2.70
2024-03-11T04:21:25.411Z,2.63
2024-03-11T04:23:52.524Z,2.50
2024-03-11T04:26:19.648Z,2.68
2024-03-11T04:28:46.640Z,2.58
2024-03-11T04:31:13.737Z,2.62
2024-03-11T04:33:40.784Z,2.37
2024-03-11T04:36:07.999Z,2.38
2024-03-11T04:38:35.061Z,2.10
2024-03-11T04:41:02.235Z,2.22
2024-03-11T04:43:29.265Z,2.20
2024-03-11T04:45:56.212Z,2.55
2024-03-11T04:48:23.324Z,2.35
2024-03-11T04:50:50.426Z,2.19
2024-03-11T04:53:17.610Z,2.03
2024-03-11T04:55:47.966Z,1.84
2024-03-11T04:58:15.047Z,1.81
2024-03-11T05:00:42.034Z,1.92
2024-03-11T05:03:09.067Z,1.97
2024-03-11T05:05:36.248Z,2.00
2024-03-11T05:08:04.189Z,2.01
2024-03-11T05:10:31.314Z,2.07
2024-03-11T05:12:58.484Z,2.19
2024-03-11T05:15:25.746Z,1.85
2024-03-11T05:17:53.223Z,2.19
2024-03-11T05:20:20.757Z,2.26
2024-03-11T05:22:48.994Z,2.04
2024-03-11T05:25:16.364Z,2.13
2024-03-11T05:27:43.577Z,2.17
2024-03-11T05:30:10.668Z,2.22
2024-03-11T05:32:38.361Z,2.48
2024-03-11T05:35:05.421Z,2.64
2024-03-11T05:37:32.585Z,2.55
2024-03-11T05:39:59.692Z,3.10
2024-03-11T05:42:26.552Z,3.18
2024-03-11T05:44:53.422Z,2.97
2024-03-11T05:47:20.216Z,2.94
2024-03-11T05:49:47.037Z,3.03
2024-03-11T05:52:13.870Z,2.90
2024-03-11T05:54:40.789Z,3.17
2024-03-11T05:57:07.671Z,2.92
2024-03-11T05:59:34.772Z,2.55
2024-03-11T06:02:01.731Z,2.56
2024-03-11T06:04:28.579Z,2.43
2024-03-11T06:06:55.436Z,4.74
2024-03-11T06:09:22.332Z,2.84
2024-03-11T06:11:49.244Z,2.19
2024-03-11T06:14:16.209Z,2.52
2024-03-11T06:16:43.202Z,3.11
2024-03-11T06:19:10.135Z,3.53
2024-03-11T06:21:36.943Z,3.63
2024-03-11T06:24:03.804Z,3.11
2024-03-11T06:26:30.816Z,2.89
2024-03-11T06:28:57.757Z,2.49
2024-03-11T06:31:24.711Z,2.64
2024-03-11T06:33:51.808Z,3.08
2024-03-11T06:36:18.846Z,2.55
2024-03-11T06:38:46.009Z,3.96
2024-03-11T06:41:13.385Z,6.68
2024-03-11T06:43:40.554Z,2.60
2024-03-11T06:46:07.827Z,6.04
2024-03-11T06:48:35.320Z,5.40
2024-03-11T06:51:04.781Z,3.29
2024-03-11T06:53:32.234Z,2.35
2024-03-11T06:55:59.260Z,1.79
2024-03-11T06:58:26.278Z,1.53
2024-03-11T07:00:53.657Z,1.41
2024-03-11T07:03:21.043Z,1.30
2024-03-11T07:05:48.189Z,1.42
2024-03-11T07:08:15.237Z,1.50
2024-03-11T07:10:42.398Z,1.45
2024-03-11T07:13:09.650Z,1.59
2024-03-11T07:15:36.699Z,1.69
2024-03-11T07:18:04.059Z,1.78
2024-03-11T07:20:31.360Z,1.77
2024-03-11T07:22:58.387Z,1.95
2024-03-11T07:25:25.421Z,2.33
2024-03-11T07:27:52.506Z,2.40
2024-03-11T07:30:19.595Z,2.64
2024-03-11T07:32:46.788Z,2.55
2024-03-11T07:35:13.786Z,2.63
2024-03-11T07:37:40.918Z,2.57
2024-03-11T07:40:08.410Z,2.60
2024-03-11T07:42:35.764Z,2.89
2024-03-11T07:45:02.958Z,2.85
2024-03-11T07:47:30.202Z,3.39
2024-03-11T07:49:57.271Z,3.15
2024-03-11T07:52:24.343Z,2.93
2024-03-11T07:54:51.518Z,2.79
2024-03-11T07:57:18.661Z,3.22
2024-03-11T07:59:45.871Z,3.53
2024-03-11T08:02:13.193Z,3.59
2024-03-11T08:04:40.240Z,3.48
2024-03-11T08:07:07.294Z,3.44
2024-03-11T08:09:34.477Z,4.06
2024-03-11T08:12:01.733Z,3.68
2024-03-11T08:14:28.884Z,3.51
2024-03-11T08:16:56.134Z,8.39
2024-03-11T08:19:23.321Z,4.64
2024-03-11T08:21:50.372Z,3.89
2024-03-11T08:24:17.741Z,3.46
2024-03-11T08:26:45.027Z,4.43
2024-03-11T08:29:12.258Z,7.46
2024-03-11T08:31:39.502Z,5.36
2024-03-11T08:34:06.743Z,3.73
2024-03-11T08:36:34.008Z,3.66
2024-03-11T08:39:01.235Z,4.78
2024-03-11T08:41:28.453Z,4.54
2024-03-11T08:43:55.744Z,3.74
2024-03-11T08:46:23.030Z,3.85
2024-03-11T08:48:50.563Z,4.62
2024-03-11T08:51:17.896Z,6.05
2024-03-11T08:53:45.135Z,4.30
2024-03-11T08:56:12.398Z,4.08
2024-03-11T08:58:39.429Z,3.82
2024-03-11T09:01:06.567Z,4.10
2024-03-11T09:03:33.721Z,4.18
2024-03-11T09:06:01.015Z,3.79
2024-03-11T09:08:28.152Z,4.09
2024-03-11T09:10:55.474Z,4.04
2024-03-11T09:13:22.759Z,4.09
2024-03-11T09:15:50.277Z,4.25
2024-03-11T09:18:17.724Z,3.98
2024-03-11T09:20:44.810Z,3.34
2024-03-11T09:23:11.922Z,2.67
2024-03-11T09:25:39.198Z,2.93
2024-03-11T09:28:06.952Z,2.87
2024-03-11T09:30:34.540Z,2.79
2024-03-11T09:33:02.371Z,3.07
2024-03-11T09:35:29.822Z,4.56
2024-03-11T09:37:56.979Z,2.75
2024-03-11T09:40:24.082Z,3.18
2024-03-11T09:42:51.269Z,2.70
2024-03-11T09:45:18.539Z,2.68
2024-03-11T09:47:45.741Z,2.74
2024-03-11T09:50:13.118Z,4.09
2024-03-11T09:52:40.290Z,3.39
2024-03-11T09:55:09.924Z,2.52
2024-03-11T09:57:38.324Z,2.36
2024-03-11T10:00:05.679Z,2.00
2024-03-11T10:02:32.855Z,2.29
2024-03-11T10:05:00.051Z,2.22
2024-03-11T10:07:27.365Z,3.00
2024-03-11T10:09:54.681Z,2.93
2024-03-11T10:12:21.947Z,3.23
2024-03-11T10:14:49.166Z,2.88
2024-03-11T10:17:16.552Z,3.27
2024-03-11T10:19:43.777Z,3.17
2024-03-11T10:22:11.067Z,3.43
2024-03-11T10:24:38.171Z,4.17
2024-03-11T10:27:05.680Z,3.80
2024-03-11T10:29:33.044Z,3.88
2024-03-11T10:32:00.250Z,4.39
2024-03-11T10:34:27.316Z,3.63
2024-03-11T10:36:54.871Z,3.64
2024-03-11T10:39:22.010Z,4.11
2024-03-11T10:41:49.269Z,4.62
2024-03-11T10:44:16.408Z,4.36
2024-03-11T10:46:43.570Z,3.19
2024-03-11T10:49:10.540Z,3.52
2024-03-11T10:51:37.790Z,3.33
2024-03-11T10:54:04.938Z,3.66
2024-03-11T10:56:32.249Z,3.63
2024-03-11T10:58:59.363Z,3.40
2024-03-11T11:01:26.514Z,3.17
2024-03-11T11:03:53.910Z,3.51
2024-03-11T11:06:21.312Z,4.03
2024-03-11T11:08:48.352Z,4.07
2024-03-11T11:11:15.672Z,4.22
2024-03-11T11:13:43.167Z,4.84
2024-03-11T11:16:10.545Z,5.08
2024-03-11T11:18:39.248Z,3.85
2024-03-11T11:21:06.589Z,5.33
2024-03-11T11:23:33.694Z,5.36
2024-03-11T11:26:00.815Z,4.11
2024-03-11T11:28:27.977Z,4.24
2024-03-11T11:30:55.798Z,3.83
2024-03-11T11:33:22.894Z,3.96
2024-03-11T11:35:50.079Z,4.88
2024-03-11T11:38:17.368Z,4.90
2024-03-11T11:40:44.467Z,4.81
2024-03-11T11:43:11.764Z,4.63
2024-03-11T11:45:39.143Z,4.90
2024-03-11T11:48:06.568Z,4.97
2024-03-11T11:50:33.841Z,4.37
2024-03-11T11:53:03.420Z,4.31
2024-03-11T11:55:31.079Z,4.09
2024-03-11T11:57:58.198Z,4.07
2024-03-11T12:00:34.204Z,3.92
2024-03-11T12:03:05.291Z,4.18
2024-03-11T12:05:32.533Z,4.13
2024-03-11T12:07:59.740Z,3.63
2024-03-11T12:10:26.769Z,3.26
2024-03-11T12:12:53.942Z,3.42
2024-03-11T12:15:21.497Z,3.52
2024-03-11T12:17:48.845Z,3.34
2024-03-11T12:20:16.366Z,4.00
2024-03-11T12:22:43.997Z,3.35
2024-03-11T12:25:11.424Z,3.89
2024-03-11T12:27:38.786Z,2.75
2024-03-11T12:30:06.176Z,2.13
2024-03-11T12:32:33.533Z,3.67
2024-03-11T12:35:00.857Z,3.40
2024-03-11T12:37:28.166Z,2.01
2024-03-11T12:39:55.363Z,2.08
2024-03-11T12:42:22.801Z,2.62
2024-03-11T12:44:49.813Z,2.37
2024-03-11T12:47:16.630Z,2.26
2024-03-11T12:49:43.469Z,2.13
2024-03-11T12:52:10.402Z,2.02
2024-03-11T12:54:37.377Z,1.74
2024-03-11T12:57:04.320Z,1.68
2024-03-11T12:59:31.230Z,1.80
2024-03-11T13:01:58.249Z,1.44
2024-03-11T13:04:25.128Z,1.60
2024-03-11T13:06:52.330Z,1.43
2024-03-11T13:09:19.362Z,1.47
2024-03-11T13:11:46.333Z,1.84
2024-03-11T13:14:13.253Z,2.23
2024-03-11T13:16:40.172Z,2.35
2024-03-11T13:19:09.264Z,2.55
2024-03-11T13:21:36.512Z,5.80
2024-03-11T13:24:03.342Z,5.38
2024-03-11T13:26:30.290Z,2.76
2024-03-11T13:28:57.121Z,3.16
2024-03-11T13:31:24.037Z,3.44
2024-03-11T13:33:51.021Z,3.92
2024-03-11T13:36:17.932Z,4.51
2024-03-11T13:38:44.839Z,3.72
2024-03-11T13:41:11.678Z,3.58
2024-03-11T13:43:38.739Z,3.31
2024-03-11T13:46:05.881Z,3.43
2024-03-11T13:48:33.152Z,4.90
2024-03-11T13:51:00.533Z,3.94
2024-03-11T13:53:27.745Z,3.88
2024-03-11T13:55:54.979Z,3.78
2024-03-11T13:58:22.491Z,3.61
2024-03-11T14:00:49.750Z,3.57
2024-03-11T14:03:16.854Z,3.54
2024-03-11T14:05:44.111Z,3.59
2024-03-11T14:08:11.419Z,3.57
2024-03-11T14:10:38.807Z,3.28
2024-03-11T14:13:06.085Z,2.78
2024-03-11T14:15:33.434Z,3.00
2024-03-11T14:18:00.897Z,2.74
2024-03-11T14:20:28.137Z,3.23
2024-03-11T14:22:55.517Z,3.06
2024-03-11T14:25:22.579Z,3.43
2024-03-11T14:27:50.139Z,3.49
2024-03-11T14:30:17.646Z,3.72
2024-03-11T14:32:44.699Z,3.38
2024-03-11T14:35:12.781Z,3.28
2024-03-11T14:37:40.647Z,3.26
2024-03-11T14:40:07.514Z,3.09
2024-03-11T14:52:13.354Z,2.88
2024-03-11T14:54:40.293Z,1.72
2024-03-11T14:57:07.297Z,1.49
2024-03-11T14:59:35.038Z,2.28
2024-03-11T15:02:02.879Z,2.39
2024-03-11T15:04:29.836Z,2.39
2024-03-11T15:06:57.026Z,2.22
2024-03-11T15:09:24.246Z,2.38
2024-03-11T15:11:51.518Z,2.08
2024-03-11T15:14:18.488Z,2.04
2024-03-11T15:16:45.364Z,1.77
2024-03-11T15:19:12.221Z,1.49
2024-03-11T15:21:39.198Z,1.48
2024-03-11T15:24:06.457Z,1.39
2024-03-11T15:26:33.461Z,1.16
2024-03-11T15:29:00.550Z,1.18
2024-03-11T15:31:27.450Z,1.16
2024-03-11T15:33:54.583Z,1.02
2024-03-11T15:36:21.743Z,1.26
2024-03-11T15:38:49.041Z,2.02
2024-03-11T15:41:16.312Z,2.15
2024-03-11T15:43:43.591Z,1.83
2024-03-11T15:46:10.970Z,1.83
2024-03-11T15:48:38.278Z,1.90
2024-03-11T15:51:05.461Z,1.63
2024-03-11T15:53:32.664Z,1.59
2024-03-11T15:55:59.978Z,1.50
2024-03-11T15:58:27.184Z,1.57
2024-03-11T16:00:54.469Z,1.38
2024-03-11T16:03:21.667Z,1.23
2024-03-11T16:05:48.648Z,1.35
2024-03-11T16:08:17.852Z,1.10
2024-03-11T16:10:47.081Z,1.16
2024-03-11T16:13:14.316Z,1.09
2024-03-11T16:15:41.846Z,0.94
2024-03-11T16:18:09.482Z,0.98
2024-03-11T16:20:36.647Z,0.96
2024-03-11T16:23:03.696Z,0.91
2024-03-11T16:25:31.193Z,0.70
2024-03-11T16:27:58.748Z,0.62
2024-03-11T16:30:26.009Z,0.60
2024-03-11T16:32:53.266Z,0.98
2024-03-11T16:35:20.637Z,0.73
2024-03-11T16:37:47.855Z,0.79
2024-03-11T16:40:15.024Z,0.89
2024-03-11T16:42:42.196Z,0.80
2024-03-11T16:45:09.262Z,1.07
2024-03-11T16:47:36.522Z,2.61
2024-03-11T16:50:03.719Z,2.65
2024-03-11T16:52:30.562Z,2.08
2024-03-11T16:54:57.718Z,1.11
2024-03-11T16:57:24.847Z,1.06
2024-03-11T16:59:51.628Z,0.95
2024-03-11T17:02:18.581Z,0.95
2024-03-11T17:04:45.429Z,0.73
2024-03-11T17:07:12.295Z,0.66
2024-03-11T17:09:39.248Z,0.86
2024-03-11T17:12:06.122Z,0.90
2024-03-11T17:14:33.081Z,0.76
2024-03-11T17:16:59.821Z,0.94
2024-03-11T17:19:26.623Z,0.97
2024-03-11T17:21:53.431Z,1.26
2024-03-11T17:24:20.504Z,1.16
2024-03-11T17:26:47.529Z,1.10
2024-03-11T17:29:14.650Z,1.24
2024-03-11T17:31:44.225Z,1.19
2024-03-11T17:34:11.501Z,1.18
2024-03-11T17:36:38.557Z,1.15
2024-03-11T17:39:06.022Z,1.03
2024-03-11T17:41:33.228Z,1.30
2024-03-11T17:44:00.164Z,1.44
2024-03-11T17:46:27.149Z,1.26
2024-03-11T17:48:54.287Z,1.54
2024-03-11T17:51:21.818Z,1.51
2024-03-11T17:53:49.502Z,1.44
2024-03-11T17:56:17.116Z,1.34
2024-03-11T17:58:44.410Z,1.21
2024-03-11T18:01:11.896Z,1.32
2024-03-11T18:03:39.353Z,1.23
2024-03-11T18:06:06.732Z,1.26
2024-03-11T18:08:34.573Z,2.23
2024-03-11T18:11:04.162Z,5.40
2024-03-11T18:13:31.328Z,1.50
2024-03-11T18:15:58.940Z,1.55
2024-03-11T18:18:26.347Z,1.71
2024-03-11T18:20:53.542Z,1.62
2024-03-11T18:23:20.859Z,1.89
2024-03-11T18:25:48.395Z,2.02
2024-03-11T18:28:15.856Z,1.71
2024-03-11T18:30:43.420Z,1.67
2024-03-11T18:33:11.035Z,1.63
2024-03-11T18:35:38.506Z,2.17
2024-03-11T18:38:05.563Z,1.97
2024-03-11T18:40:32.732Z,1.77
2024-03-11T18:43:00.073Z,3.12
2024-03-11T18:45:27.474Z,1.74
2024-03-11T18:47:54.823Z,1.74
2024-03-11T18:50:21.985Z,1.73
2024-03-11T18:52:54.208Z,2.07
2024-03-11T18:55:27.502Z,2.16
2024-03-11T18:57:54.797Z,2.14
2024-03-11T19:00:22.191Z,2.21
2024-03-11T19:02:49.368Z,2.09
2024-03-11T19:05:16.426Z,2.17
2024-03-11T19:07:43.826Z,2.32
2024-03-11T19:10:11.581Z,2.04
2024-03-11T19:12:39.804Z,2.05
2024-03-11T19:15:07.021Z,1.79
2024-03-11T19:17:34.228Z,2.04
2024-03-11T19:20:02.428Z,2.10
2024-03-11T19:22:29.661Z,2.15
2024-03-11T19:24:57.003Z,2.33
2024-03-11T19:27:24.148Z,2.18
2024-03-11T19:29:51.486Z,2.35
2024-03-11T19:32:18.788Z,2.19
2024-03-11T19:34:46.092Z,2.13
2024-03-11T19:37:13.352Z,2.25
2024-03-11T19:39:40.384Z,2.39
2024-03-11T19:42:07.671Z,2.37
2024-03-11T19:44:34.795Z,2.24
2024-03-11T19:47:01.799Z,2.41
2024-03-11T19:49:28.965Z,2.51
2024-03-11T19:51:56.267Z,2.28
2024-03-11T19:54:23.456Z,2.28
2024-03-11T19:56:50.616Z,2.23
2024-03-11T19:59:17.702Z,2.26
2024-03-11T20:01:44.983Z,2.33
2024-03-11T20:04:12.071Z,2.12
2024-03-11T20:06:39.243Z,2.20
2024-03-11T20:09:06.461Z,2.26
2024-03-11T20:11:33.551Z,2.22
2024-03-11T20:14:00.631Z,2.15
2024-03-11T20:16:27.654Z,2.10
2024-03-11T20:18:54.732Z,2.05
2024-03-11T20:21:21.847Z,2.23
2024-03-11T20:23:48.871Z,2.22
2024-03-11T20:26:15.969Z,1.90
2024-03-11T20:28:43.081Z,2.28
2024-03-11T20:31:10.239Z,2.33
2024-03-11T20:33:37.409Z,2.35
2024-03-11T20:36:05.282Z,2.21
2024-03-11T20:38:32.075Z,2.38
2024-03-11T20:40:58.929Z,2.32
2024-03-11T20:43:26.062Z,2.42
2024-03-11T20:45:53.361Z,2.74
2024-03-11T20:48:20.277Z,2.55
2024-03-11T20:50:47.775Z,2.81
2024-03-11T20:53:14.854Z,3.04
2024-03-11T20:55:54.291Z,3.32
2024-03-11T20:58:24.588Z,3.18
2024-03-11T21:00:52.747Z,2.79
2024-03-11T21:03:20.521Z,3.07
2024-03-11T21:05:48.886Z,2.98
2024-03-11T21:08:15.939Z,3.28
2024-03-11T21:10:43.545Z,2.89
2024-03-11T21:13:10.895Z,2.90
2024-03-11T21:15:38.191Z,2.78
2024-03-11T21:18:06.931Z,2.62
2024-03-11T21:20:34.382Z,2.96
2024-03-11T21:23:01.363Z,3.08
2024-03-11T21:25:28.704Z,2.96
2024-03-11T21:27:55.981Z,2.75
2024-03-11T21:30:23.800Z,2.75
2024-03-11T21:32:52.148Z,3.08
2024-03-11T21:35:21.236Z,2.85
2024-03-11T21:37:48.803Z,3.01
2024-03-11T21:40:16.711Z,3.17
2024-03-11T21:42:44.822Z,3.07
2024-03-11T21:45:12.326Z,3.15
2024-03-11T21:47:40.042Z,3.06
2024-03-11T21:50:08.019Z,2.89
2024-03-11T21:52:42.253Z,2.63
2024-03-11T21:55:09.594Z,2.94
2024-03-11T21:57:36.699Z,2.76
2024-03-11T22:00:04.244Z,2.80
2024-03-11T22:02:31.067Z,3.06
2024-03-11T22:04:58.308Z,3.07
2024-03-11T22:07:25.118Z,3.03
2024-03-11T22:09:52.540Z,2.91
2024-03-11T22:12:20.593Z,3.31
2024-03-11T22:14:47.656Z,2.99
2024-03-11T22:17:14.713Z,3.10
2024-03-11T22:19:41.929Z,2.95
2024-03-11T22:22:10.901Z,3.09
2024-03-11T22:24:38.717Z,2.71
2024-03-11T22:27:06.565Z,3.10
2024-03-11T22:29:33.900Z,3.20
2024-03-11T22:32:01.060Z,3.07
2024-03-11T22:34:27.839Z,3.31
2024-03-11T22:36:55.092Z,3.40
2024-03-11T22:39:22.024Z,3.75
2024-03-11T22:41:49.106Z,3.63
2024-03-11T22:44:15.895Z,3.95
2024-03-11T22:46:42.694Z,3.84
2024-03-11T22:49:14.013Z,4.03
2024-03-11T22:51:41.912Z,3.98
2024-03-11T22:54:09.459Z,3.77
2024-03-11T22:56:36.582Z,3.92
2024-03-11T22:59:03.680Z,3.62
2024-03-11T23:01:31.347Z,3.67
2024-03-11T23:03:58.521Z,3.94
2024-03-11T23:06:25.635Z,3.96
2024-03-11T23:08:58.998Z,4.16
2024-03-11T23:11:29.855Z,4.09
2024-03-11T23:13:59.740Z,4.31
2024-03-11T23:16:31.403Z,3.99
2024-03-11T23:18:59.089Z,4.03
2024-03-11T23:21:26.584Z,4.32
2024-03-11T23:23:54.109Z,4.40
2024-03-11T23:26:21.257Z,4.49
2024-03-11T23:28:50.404Z,4.72
2024-03-11T23:31:17.409Z,4.61
2024-03-11T23:33:52.346Z,4.04
2024-03-11T23:36:22.619Z,3.90
2024-03-11T23:38:55.839Z,3.88
2024-03-11T23:41:25.168Z,3.94
2024-03-11T23:43:52.241Z,3.96
2024-03-11T23:46:32.003Z,3.90
2024-03-11T23:48:58.830Z,3.85
2024-03-11T23:51:27.932Z,3.79
2024-03-11T23:53:56.872Z,3.82
2024-03-11T23:56:23.674Z,3.87
2024-03-11T23:58:50.528Z,3.71
